createdAt,value
2018-10-06T00:01:56.869Z,7.87
2018-10-06T00:04:24.997Z,8.03
2018-10-06T00:06:53.162Z,8.00
2018-10-06T00:09:21.286Z,7.90
2018-10-06T00:11:49.433Z,7.90
2018-10-06T00:14:17.562Z,8.00
2018-10-06T00:16:45.735Z,8.00
2018-10-06T00:19:13.841Z,8.90
2018-10-06T00:21:41.982Z,8.13
2018-10-06T00:24:10.141Z,8.20
2018-10-06T00:26:38.269Z,8.20
2018-10-06T00:29:06.421Z,8.00
2018-10-06T00:31:34.617Z,8.53
2018-10-06T00:34:02.746Z,8.23
2018-10-06T00:36:30.901Z,7.67
2018-10-06T00:38:59.035Z,8.03
2018-10-06T00:41:27.153Z,8.27
2018-10-06T00:43:55.285Z,8.23
2018-10-06T00:46:23.452Z,8.30
2018-10-06T00:48:51.598Z,8.37
2018-10-06T00:51:19.741Z,8.30
2018-10-06T00:53:47.954Z,8.20
2018-10-06T00:56:16.077Z,8.90
2018-10-06T00:58:44.213Z,8.23
2018-10-06T01:01:12.360Z,8.70
2018-10-06T01:03:40.477Z,7.63
2018-10-06T01:06:08.634Z,8.43
2018-10-06T01:08:36.809Z,8.90
2018-10-06T01:11:04.945Z,8.73
2018-10-06T01:13:33.085Z,8.40
2018-10-06T01:16:01.234Z,7.83
2018-10-06T01:18:29.355Z,8.80
2018-10-06T01:20:57.478Z,8.93
2018-10-06T01:23:25.630Z,8.63
2018-10-06T01:25:53.733Z,8.40
2018-10-06T01:28:21.873Z,9.03
2018-10-06T01:30:50.022Z,10.87
2018-10-06T01:33:18.155Z,10.57
2018-10-06T01:35:46.322Z,10.33
2018-10-06T01:38:14.477Z,9.67
2018-10-06T01:40:42.614Z,10.43
2018-10-06T01:43:10.794Z,9.13
2018-10-06T01:45:38.925Z,9.87
2018-10-06T01:48:07.139Z,9.93
2018-10-06T01:50:35.314Z,10.40
2018-10-06T01:53:03.473Z,10.53
2018-10-06T01:55:31.618Z,10.40
2018-10-06T01:57:59.758Z,11.30
2018-10-06T02:00:27.934Z,10.67
2018-10-06T02:02:56.060Z,11.87
2018-10-06T02:05:24.175Z,12.43
2018-10-06T02:07:52.404Z,12.50
2018-10-06T02:10:20.514Z,11.50
2018-10-06T02:12:48.713Z,11.10
2018-10-06T02:15:16.825Z,10.80
2018-10-06T02:17:44.949Z,10.30
2018-10-06T02:20:13.188Z,11.27
2018-10-06T02:22:41.310Z,11.50
2018-10-06T02:25:09.450Z,11.67
2018-10-06T02:27:37.658Z,10.53
2018-10-06T02:30:05.902Z,10.80
2018-10-06T02:32:34.006Z,10.57
2018-10-06T02:35:02.181Z,10.37
2018-10-06T02:37:30.317Z,9.67
2018-10-06T02:39:58.429Z,9.67
2018-10-06T02:42:26.669Z,10.23
2018-10-06T02:44:54.849Z,9.80
2018-10-06T02:47:23.015Z,10.83
2018-10-06T02:49:51.167Z,9.50
2018-10-06T02:52:19.322Z,9.53
2018-10-06T02:54:47.466Z,9.50
2018-10-06T02:57:15.597Z,9.90
2018-10-06T02:59:43.745Z,10.10
2018-10-06T03:02:11.858Z,9.90
2018-10-06T03:04:40.009Z,9.63
2018-10-06T03:07:08.170Z,9.90
2018-10-06T03:09:36.299Z,9.67
2018-10-06T03:12:04.459Z,10.10
2018-10-06T03:14:32.587Z,9.53
2018-10-06T03:17:00.729Z,9.47
2018-10-06T03:19:28.893Z,10.07
2018-10-06T03:21:56.989Z,9.77
2018-10-06T03:24:25.136Z,10.30
2018-10-06T03:26:53.250Z,9.97
2018-10-06T03:29:21.431Z,10.47
2018-10-06T03:31:49.580Z,10.23
2018-10-06T03:34:17.722Z,9.67
2018-10-06T03:36:46.116Z,10.07
2018-10-06T03:39:14.264Z,10.20
2018-10-06T03:41:42.526Z,9.60
2018-10-06T03:44:10.728Z,9.27
2018-10-06T03:46:39.214Z,9.87
2018-10-06T03:49:07.432Z,10.00
2018-10-06T03:51:35.688Z,9.87
2018-10-06T03:54:04.033Z,10.00
2018-10-06T03:56:32.160Z,10.03
2018-10-06T03:59:00.350Z,10.97
2018-10-06T04:01:28.503Z,10.43
2018-10-06T04:03:56.736Z,9.77
2018-10-06T04:06:24.899Z,10.27
2018-10-06T04:08:53.921Z,11.17
2018-10-06T04:11:22.092Z,9.80
2018-10-06T04:13:50.268Z,10.33
2018-10-06T04:16:18.435Z,10.63
2018-10-06T04:18:46.621Z,9.60
2018-10-06T04:21:15.083Z,10.50
2018-10-06T04:23:43.258Z,10.60
2018-10-06T04:26:11.410Z,9.83
2018-10-06T04:28:39.637Z,10.27
2018-10-06T04:31:07.882Z,10.57
2018-10-06T04:33:36.057Z,10.27
2018-10-06T04:36:04.243Z,10.57
2018-10-06T04:38:32.407Z,9.70
2018-10-06T04:41:00.581Z,9.13
2018-10-06T04:43:28.756Z,9.60
2018-10-06T04:45:56.896Z,8.23
2018-10-06T04:48:25.055Z,7.97
2018-10-06T04:50:53.232Z,7.73
2018-10-06T04:53:21.400Z,8.37
2018-10-06T04:55:49.552Z,7.53
2018-10-06T04:58:17.728Z,8.10
2018-10-06T05:00:45.883Z,8.43
2018-10-06T05:03:14.077Z,8.67
2018-10-06T05:05:42.242Z,8.90
2018-10-06T05:08:10.601Z,9.07
2018-10-06T05:10:38.771Z,9.23
2018-10-06T05:13:06.957Z,9.27
2018-10-06T05:15:35.118Z,9.60
2018-10-06T05:18:03.274Z,8.87
2018-10-06T05:20:31.435Z,8.80
2018-10-06T05:22:59.754Z,8.60
2018-10-06T05:25:27.915Z,9.07
2018-10-06T05:27:56.084Z,8.33
2018-10-06T05:30:24.456Z,8.83
2018-10-06T05:32:52.640Z,9.03
2018-10-06T05:35:21.096Z,9.33
2018-10-06T05:37:49.252Z,9.30
2018-10-06T05:40:17.410Z,9.73
2018-10-06T05:42:45.594Z,8.73
2018-10-06T05:45:13.895Z,9.70
2018-10-06T05:47:42.084Z,9.60
2018-10-06T05:50:10.263Z,8.53
2018-10-06T05:52:38.468Z,9.40
2018-10-06T05:55:06.701Z,9.00
2018-10-06T05:57:34.874Z,9.83
2018-10-06T06:00:03.054Z,8.93
2018-10-06T06:02:31.217Z,8.30
2018-10-06T06:04:59.771Z,8.93
2018-10-06T06:07:27.984Z,9.33
2018-10-06T06:09:56.190Z,9.10
2018-10-06T06:12:24.347Z,9.30
2018-10-06T06:14:52.573Z,9.53
2018-10-06T06:17:20.739Z,9.83
2018-10-06T06:19:48.934Z,9.90
2018-10-06T06:22:17.091Z,9.37
2018-10-06T06:24:45.260Z,9.50
2018-10-06T06:27:13.440Z,9.73
2018-10-06T06:29:41.608Z,9.60
2018-10-06T06:32:10.079Z,9.87
2018-10-06T06:34:38.178Z,10.17
2018-10-06T06:37:06.596Z,10.43
2018-10-06T06:39:34.972Z,9.47
2018-10-06T06:42:03.140Z,11.37
2018-10-06T06:44:31.408Z,10.33
2018-10-06T06:46:59.483Z,9.77
2018-10-06T06:49:27.893Z,10.10
2018-10-06T06:51:56.122Z,9.70
2018-10-06T06:54:24.300Z,10.47
2018-10-06T06:56:52.484Z,9.20
2018-10-06T06:59:20.664Z,8.80
2018-10-06T07:01:48.846Z,10.37
2018-10-06T07:04:17.067Z,9.20
2018-10-06T07:06:45.284Z,9.97
2018-10-06T07:09:13.513Z,9.87
2018-10-06T07:11:41.700Z,9.60
2018-10-06T07:14:09.919Z,9.83
2018-10-06T07:16:38.116Z,9.23
2018-10-06T07:19:06.457Z,9.10
2018-10-06T07:21:34.627Z,9.43
2018-10-06T07:24:03.061Z,8.93
2018-10-06T07:26:31.339Z,9.70
2018-10-06T07:28:59.540Z,9.33
2018-10-06T07:31:27.764Z,9.93
2018-10-06T07:33:55.984Z,8.77
2018-10-06T07:36:24.201Z,8.53
2018-10-06T07:38:52.364Z,8.80
2018-10-06T07:41:20.533Z,8.33
2018-10-06T07:43:48.762Z,8.33
2018-10-06T07:46:16.956Z,8.07
2018-10-06T07:48:45.131Z,8.87
2018-10-06T07:51:13.328Z,8.33
2018-10-06T07:53:41.507Z,8.13
2018-10-06T07:56:09.701Z,9.43
2018-10-06T07:58:37.946Z,9.30
2018-10-06T08:01:06.281Z,8.00
2018-10-06T08:03:34.482Z,8.87
2018-10-06T08:06:02.657Z,8.30
2018-10-06T08:08:30.853Z,8.23
2018-10-06T08:10:59.003Z,8.90
2018-10-06T08:13:27.332Z,9.07
2018-10-06T08:15:55.600Z,8.07
2018-10-06T08:18:23.792Z,8.37
2018-10-06T08:20:52.264Z,8.00
2018-10-06T08:23:20.431Z,8.20
2018-10-06T08:25:48.684Z,8.37
2018-10-06T08:28:16.863Z,8.67
2018-10-06T08:30:45.191Z,7.33
2018-10-06T08:33:13.536Z,9.40
2018-10-06T08:35:41.728Z,8.30
2018-10-06T08:38:09.919Z,8.53
2018-10-06T08:40:38.358Z,8.03
2018-10-06T08:43:06.595Z,8.50
2018-10-06T08:45:34.775Z,8.53
2018-10-06T08:48:02.944Z,8.43
2018-10-06T08:50:31.127Z,8.20
2018-10-06T08:52:59.324Z,8.30
2018-10-06T08:55:27.532Z,8.43
2018-10-06T08:57:55.707Z,8.47
2018-10-06T09:00:23.880Z,8.37
2018-10-06T09:02:52.110Z,8.97
2018-10-06T09:05:20.285Z,8.90
2018-10-06T09:07:48.579Z,9.63
2018-10-06T09:10:16.785Z,8.33
2018-10-06T09:12:45.033Z,8.97
2018-10-06T09:15:13.183Z,9.63
2018-10-06T09:17:41.389Z,10.57
2018-10-06T09:20:09.594Z,9.90
2018-10-06T09:22:38.066Z,10.53
2018-10-06T09:25:06.260Z,10.20
2018-10-06T09:27:34.452Z,10.57
2018-10-06T09:30:02.640Z,10.97
2018-10-06T09:32:30.812Z,11.07
2018-10-06T09:34:58.999Z,9.83
2018-10-06T09:37:27.213Z,11.30
2018-10-06T09:39:55.429Z,10.70
2018-10-06T09:42:23.580Z,9.97
2018-10-06T09:44:51.793Z,9.50
2018-10-06T09:47:19.912Z,10.57
2018-10-06T09:49:48.038Z,10.10
2018-10-06T09:52:16.182Z,10.30
2018-10-06T09:54:44.297Z,9.10
2018-10-06T09:57:12.710Z,10.00
2018-10-06T09:59:40.833Z,10.30
2018-10-06T10:02:10.740Z,12.20
2018-10-06T10:04:39.040Z,10.70
2018-10-06T10:07:07.354Z,10.37
2018-10-06T10:09:35.475Z,10.50
2018-10-06T10:12:03.593Z,10.10
2018-10-06T10:14:31.753Z,10.30
2018-10-06T10:16:59.952Z,10.37
2018-10-06T10:19:28.010Z,10.73
2018-10-06T10:21:56.178Z,10.73
2018-10-06T10:24:24.273Z,10.47
2018-10-06T10:26:52.398Z,10.77
2018-10-06T10:29:20.539Z,10.57
2018-10-06T10:31:48.682Z,10.67
2018-10-06T10:34:16.828Z,11.73
2018-10-06T10:36:44.968Z,10.93
2018-10-06T10:39:13.153Z,11.00
2018-10-06T10:41:41.397Z,11.20
2018-10-06T10:44:09.638Z,10.40
2018-10-06T10:46:37.656Z,10.63
2018-10-06T10:49:05.814Z,10.20
2018-10-06T10:51:33.954Z,9.30
2018-10-06T10:54:02.336Z,10.03
2018-10-06T10:56:30.496Z,9.80
2018-10-06T10:58:58.622Z,9.50
2018-10-06T11:01:26.806Z,10.58
2018-10-06T11:03:55.002Z,10.50
2018-10-06T11:06:23.060Z,10.67
2018-10-06T11:08:51.177Z,9.00
2018-10-06T11:11:19.371Z,9.37
2018-10-06T11:13:47.426Z,9.53
2018-10-06T11:16:15.581Z,9.50
2018-10-06T11:18:43.746Z,8.63
2018-10-06T11:21:11.881Z,6.53
2018-10-06T11:23:40.020Z,7.40
2018-10-06T11:26:08.313Z,6.70
2018-10-06T11:28:36.458Z,6.40
2018-10-06T11:31:04.572Z,6.23
2018-10-06T11:33:32.711Z,5.97
2018-10-06T11:36:00.858Z,6.00
2018-10-06T11:38:28.979Z,6.47
2018-10-06T11:40:57.129Z,5.45
2018-10-06T11:43:25.267Z,5.10
2018-10-06T11:45:53.416Z,5.60
2018-10-06T11:48:21.539Z,5.10
2018-10-06T11:50:49.657Z,4.62
2018-10-06T11:53:18.081Z,5.03
2018-10-06T11:55:46.224Z,4.05
2018-10-06T11:58:14.354Z,3.55
2018-10-06T12:00:42.546Z,3.77
2018-10-06T12:03:10.605Z,3.10
2018-10-06T12:05:38.859Z,3.00
2018-10-06T12:08:07.301Z,3.10
2018-10-06T12:10:35.430Z,3.02
2018-10-06T12:13:03.593Z,2.72
2018-10-06T12:15:32.279Z,2.77
2018-10-06T12:18:00.417Z,2.80
2018-10-06T12:20:28.551Z,2.98
2018-10-06T12:22:56.681Z,2.70
2018-10-06T12:25:24.951Z,2.60
2018-10-06T12:27:53.069Z,2.65
2018-10-06T12:30:21.237Z,2.75
2018-10-06T12:32:49.666Z,2.80
2018-10-06T12:35:18.225Z,2.70
2018-10-06T12:37:46.406Z,2.70
2018-10-06T12:40:14.553Z,2.58
2018-10-06T12:42:42.779Z,2.40
2018-10-06T12:45:10.891Z,3.17
2018-10-06T12:47:39.171Z,2.60
2018-10-06T12:50:07.306Z,2.80
2018-10-06T12:52:35.432Z,2.92
2018-10-06T12:55:03.848Z,2.85
2018-10-06T12:57:33.850Z,2.65
2018-10-06T13:00:02.003Z,2.80
2018-10-06T13:02:30.346Z,2.80
2018-10-06T13:04:58.522Z,3.17
2018-10-06T13:07:26.650Z,2.98
2018-10-06T13:09:54.774Z,2.95
2018-10-06T13:12:22.901Z,2.90
2018-10-06T13:14:51.045Z,3.33
2018-10-06T13:17:19.186Z,2.92
2018-10-06T13:19:47.325Z,3.17
2018-10-06T13:22:15.476Z,2.75
2018-10-06T13:24:43.618Z,3.30
2018-10-06T13:27:11.881Z,2.72
2018-10-06T13:29:40.067Z,3.10
2018-10-06T13:32:08.185Z,2.72
2018-10-06T13:34:36.334Z,2.92
2018-10-06T13:37:04.473Z,3.08
2018-10-06T13:39:32.937Z,3.12
2018-10-06T13:42:01.060Z,3.02
2018-10-06T13:44:29.195Z,3.17
2018-10-06T13:46:57.348Z,3.10
2018-10-06T13:49:25.455Z,3.22
2018-10-06T13:51:53.765Z,2.87
2018-10-06T13:54:21.932Z,3.45
2018-10-06T13:56:50.218Z,3.20
2018-10-06T13:59:18.354Z,3.27
2018-10-06T14:01:46.494Z,3.37
2018-10-06T14:04:14.637Z,3.30
2018-10-06T14:06:42.921Z,3.30
2018-10-06T14:09:11.053Z,3.00
2018-10-06T14:11:39.242Z,3.60
2018-10-06T14:14:07.431Z,3.22
2018-10-06T14:16:35.965Z,3.00
2018-10-06T14:19:04.097Z,2.98
2018-10-06T14:21:32.233Z,3.12
2018-10-06T14:24:00.629Z,3.10
2018-10-06T14:26:28.763Z,3.40
2018-10-06T14:28:56.858Z,3.08
2018-10-06T14:31:24.982Z,3.67
2018-10-06T14:33:53.105Z,3.37
2018-10-06T14:36:21.270Z,3.20
2018-10-06T14:38:49.407Z,3.50
2018-10-06T14:41:17.990Z,3.40
2018-10-06T14:43:46.142Z,3.20
2018-10-06T14:46:15.340Z,3.15
2018-10-06T14:48:43.680Z,3.55
2018-10-06T14:51:11.794Z,3.57
2018-10-06T14:53:39.909Z,3.67
2018-10-06T14:56:08.034Z,3.27
2018-10-06T14:58:36.170Z,3.20
2018-10-06T15:01:04.613Z,3.20
2018-10-06T15:03:32.806Z,3.73
2018-10-06T15:06:00.850Z,3.40
2018-10-06T15:08:29.173Z,3.50
2018-10-06T15:10:57.358Z,3.37
2018-10-06T15:13:25.486Z,2.90
2018-10-06T15:15:53.657Z,3.22
2018-10-06T15:18:21.758Z,3.17
2018-10-06T15:20:50.961Z,3.40
2018-10-06T15:23:19.166Z,2.87
2018-10-06T15:25:47.361Z,2.83
2018-10-06T15:28:15.548Z,3.02
2018-10-06T15:30:43.626Z,3.20
2018-10-06T15:33:11.747Z,3.12
2018-10-06T15:35:39.871Z,2.90
2018-10-06T15:38:08.184Z,3.20
2018-10-06T15:40:36.316Z,3.97
2018-10-06T15:43:04.531Z,3.70
2018-10-06T15:45:32.669Z,3.13
2018-10-06T15:48:01.161Z,3.10
2018-10-06T15:50:29.254Z,3.37
2018-10-06T15:52:57.755Z,3.30
2018-10-06T15:55:25.922Z,3.20
2018-10-06T15:57:54.080Z,3.13
2018-10-06T16:00:23.600Z,3.80
2018-10-06T16:02:52.382Z,3.43
2018-10-06T16:05:28.301Z,3.30
2018-10-06T16:08:04.955Z,8.63
2018-10-06T16:10:39.538Z,10.73
2018-10-06T16:13:07.737Z,6.47
2018-10-06T16:15:35.926Z,7.90
2018-10-06T16:18:04.087Z,15.40
2018-10-06T16:20:32.293Z,22.93
2018-10-06T16:23:00.510Z,28.87
2018-10-06T16:25:28.735Z,19.43
2018-10-06T16:27:56.918Z,10.97
2018-10-06T16:30:25.154Z,14.87
2018-10-06T16:32:53.635Z,19.30
2018-10-06T16:35:21.810Z,11.10
2018-10-06T16:37:50.172Z,7.57
2018-10-06T16:40:18.438Z,5.40
2018-10-06T16:42:46.777Z,4.90
2018-10-06T16:45:15.065Z,4.70
2018-10-06T16:47:43.502Z,5.40
2018-10-06T16:50:11.863Z,12.20
2018-10-06T16:52:40.193Z,11.03
2018-10-06T16:55:08.808Z,9.80
2018-10-06T16:57:37.063Z,11.43
2018-10-06T17:00:05.262Z,12.40
2018-10-06T17:02:33.513Z,10.17
2018-10-06T17:05:01.742Z,10.60
2018-10-06T17:07:30.044Z,10.30
2018-10-06T17:09:58.461Z,9.80
2018-10-06T17:12:26.678Z,9.00
2018-10-06T17:14:54.935Z,9.10
2018-10-06T17:17:23.680Z,12.47
2018-10-06T17:19:52.811Z,10.63
2018-10-06T17:22:21.762Z,10.07
2018-10-06T17:24:50.762Z,9.10
2018-10-06T17:27:19.491Z,11.73
2018-10-06T17:29:48.480Z,12.30
2018-10-06T17:32:16.885Z,11.70
2018-10-06T17:34:45.456Z,7.20
2018-10-06T17:37:13.766Z,8.07
2018-10-06T17:39:43.338Z,7.07
2018-10-06T17:42:11.834Z,6.57
2018-10-06T17:44:40.044Z,5.30
2018-10-06T17:47:08.196Z,6.03
2018-10-06T17:49:36.404Z,6.03
2018-10-06T17:52:04.551Z,6.30
2018-10-06T17:54:32.724Z,6.50
2018-10-06T17:57:01.192Z,6.00
2018-10-06T17:59:29.989Z,6.13
2018-10-06T18:02:02.205Z,6.03
2018-10-06T18:04:32.401Z,5.93
2018-10-06T18:07:02.421Z,6.33
2018-10-06T18:09:30.729Z,6.40
2018-10-06T18:11:58.901Z,6.47
2018-10-06T18:14:27.086Z,7.07
2018-10-06T18:16:55.688Z,6.53
2018-10-06T18:19:23.833Z,6.03
2018-10-06T18:21:52.006Z,6.87
2018-10-06T18:24:20.177Z,7.03
2018-10-06T18:26:52.485Z,6.60
2018-10-06T18:29:20.782Z,6.40
2018-10-06T18:31:48.797Z,6.37
2018-10-06T18:34:17.249Z,6.20
2018-10-06T18:36:48.187Z,6.37
2018-10-06T18:39:16.354Z,6.13
2018-10-06T18:41:44.489Z,6.80
2018-10-06T18:44:12.632Z,5.60
2018-10-06T18:46:40.882Z,6.70
2018-10-06T18:49:09.085Z,6.40
2018-10-06T18:51:39.296Z,5.83
2018-10-06T18:54:07.534Z,6.40
2018-10-06T18:56:35.707Z,6.50
2018-10-06T18:59:03.894Z,6.70
2018-10-06T19:01:32.065Z,6.30
2018-10-06T19:04:00.626Z,6.37
2018-10-06T19:06:28.835Z,6.30
2018-10-06T19:08:57.618Z,6.90
2018-10-06T19:11:25.783Z,6.93
2018-10-06T19:13:54.054Z,7.23
2018-10-06T19:16:22.229Z,7.20
2018-10-06T19:18:50.361Z,6.17
2018-10-06T19:21:18.554Z,6.40
2018-10-06T19:23:47.014Z,6.30
2018-10-06T19:26:15.234Z,6.90
2018-10-06T19:28:43.462Z,5.80
2018-10-06T19:31:11.741Z,6.60
2018-10-06T19:33:39.958Z,7.20
2018-10-06T19:36:08.568Z,6.53
2018-10-06T19:38:36.754Z,6.70
2018-10-06T19:41:04.970Z,7.27
2018-10-06T19:43:33.127Z,6.90
2018-10-06T19:46:01.597Z,7.90
2018-10-06T19:48:29.761Z,8.00
2018-10-06T19:50:58.016Z,7.43
2018-10-06T19:53:26.308Z,6.83
2018-10-06T19:55:54.763Z,6.30
2018-10-06T19:58:23.418Z,6.80
2018-10-06T20:00:51.534Z,6.97
2018-10-06T20:03:20.188Z,6.80
2018-10-06T20:05:48.549Z,6.40
2018-10-06T20:08:17.146Z,6.80
2018-10-06T20:10:45.277Z,6.20
2018-10-06T20:13:13.430Z,6.77
2018-10-06T20:15:41.829Z,6.47
2018-10-06T20:18:10.303Z,6.53
2018-10-06T20:20:38.608Z,7.10
2018-10-06T20:23:07.362Z,7.50
2018-10-06T20:25:35.533Z,7.23
2018-10-06T20:28:03.789Z,7.27
2018-10-06T20:30:32.293Z,6.20
2018-10-06T20:33:00.925Z,6.73
2018-10-06T20:35:29.291Z,7.07
2018-10-06T20:37:57.457Z,6.57
2018-10-06T20:40:26.085Z,6.60
2018-10-06T20:42:54.231Z,6.90
2018-10-06T20:45:22.869Z,7.10
2018-10-06T20:47:51.254Z,6.47
2018-10-06T20:50:19.965Z,7.17
2018-10-06T20:52:48.263Z,7.37
2018-10-06T20:55:16.726Z,7.07
2018-10-06T20:57:45.073Z,6.50
2018-10-06T21:00:13.251Z,6.97
2018-10-06T21:02:41.901Z,7.20
2018-10-06T21:05:10.074Z,7.13
2018-10-06T21:07:38.263Z,6.73
2018-10-06T21:10:06.417Z,6.60
2018-10-06T21:12:34.625Z,6.67
2018-10-06T21:15:02.722Z,6.70
2018-10-06T21:17:30.846Z,6.97
2018-10-06T21:19:59.034Z,7.07
2018-10-06T21:22:27.187Z,6.97
2018-10-06T21:24:55.359Z,7.23
2018-10-06T21:27:23.570Z,7.27
2018-10-06T21:29:51.730Z,6.90
2018-10-06T21:32:19.874Z,6.67
2018-10-06T21:34:48.076Z,6.80
2018-10-06T21:37:24.302Z,7.00
2018-10-06T21:39:52.512Z,6.73
2018-10-06T21:42:20.628Z,6.83
2018-10-06T21:44:48.827Z,7.20
2018-10-06T21:47:17.373Z,7.60
2018-10-06T21:49:45.484Z,8.10
2018-10-06T21:52:13.602Z,7.97
2018-10-06T21:54:41.725Z,7.63
2018-10-06T21:57:09.852Z,7.90
2018-10-06T21:59:38.246Z,7.77
2018-10-06T22:02:06.376Z,7.80
2018-10-06T22:04:34.498Z,7.10
2018-10-06T22:07:02.658Z,6.40
2018-10-06T22:09:30.778Z,8.43
2018-10-06T22:11:58.907Z,7.33
2018-10-06T22:14:27.021Z,6.97
2018-10-06T22:16:55.157Z,7.00
2018-10-06T22:19:23.274Z,6.70
2018-10-06T22:21:51.409Z,7.67
2018-10-06T22:24:19.550Z,7.27
2018-10-06T22:26:47.675Z,7.20
2018-10-06T22:29:15.860Z,7.07
2018-10-06T22:31:43.975Z,7.50
2018-10-06T22:34:12.098Z,7.80
2018-10-06T22:36:40.225Z,7.77
2018-10-06T22:39:09.250Z,7.80
2018-10-06T22:41:37.498Z,8.03
2018-10-06T22:44:05.618Z,7.50
2018-10-06T22:46:33.889Z,7.10
2018-10-06T22:49:02.081Z,7.33
2018-10-06T22:51:30.208Z,7.50
2018-10-06T22:53:58.325Z,8.70
2018-10-06T22:56:26.465Z,7.60
2018-10-06T22:58:54.581Z,7.80
2018-10-06T23:01:22.697Z,7.90
2018-10-06T23:03:50.844Z,7.90
2018-10-06T23:06:18.966Z,7.33
2018-10-06T23:08:47.082Z,8.10
2018-10-06T23:11:15.354Z,7.57
2018-10-06T23:13:43.470Z,7.70
2018-10-06T23:16:11.592Z,7.80
2018-10-06T23:18:39.730Z,8.10
2018-10-06T23:21:07.842Z,7.90
2018-10-06T23:23:36.244Z,7.90
2018-10-06T23:26:04.405Z,7.77
2018-10-06T23:28:32.473Z,7.70
2018-10-06T23:31:00.607Z,8.77
2018-10-06T23:33:28.738Z,8.10
2018-10-06T23:35:56.842Z,8.33
2018-10-06T23:38:25.064Z,8.47
2018-10-06T23:40:53.186Z,8.20
2018-10-06T23:43:21.303Z,8.13
2018-10-06T23:45:49.413Z,8.10
2018-10-06T23:48:17.531Z,8.13
2018-10-06T23:50:45.655Z,8.77
2018-10-06T23:53:13.773Z,8.20
2018-10-06T23:55:41.895Z,8.63
2018-10-06T23:58:10.286Z,8.57
